createdAt,value
2019-01-14T18:14:17.689Z,20.30
2019-01-14T18:16:46.176Z,20.40
2019-01-14T18:19:14.861Z,20.40
2019-01-14T18:21:43.359Z,20.30
2019-01-14T18:24:11.816Z,20.30
2019-01-14T18:26:40.267Z,20.30
2019-01-14T18:29:08.857Z,20.40
2019-01-14T18:31:37.436Z,20.30
2019-01-14T18:34:05.821Z,20.20
2019-01-14T18:36:34.263Z,20.20
2019-01-14T18:39:02.779Z,20.30
2019-01-14T18:41:31.369Z,20.20
2019-01-14T18:43:59.727Z,20.20
2019-01-14T18:46:28.059Z,20.10
2019-01-14T18:48:56.567Z,20.10
2019-01-14T18:51:24.986Z,20.20
2019-01-14T18:53:53.561Z,20.10
2019-01-14T18:56:21.876Z,20.10
2019-01-14T18:58:50.360Z,20.10
2019-01-14T19:01:18.825Z,20.20
2019-01-14T19:03:47.336Z,20.20
2019-01-14T19:06:16.051Z,20.20
2019-01-14T19:08:44.449Z,20.10
2019-01-14T19:11:12.808Z,20.20
2019-01-14T19:13:41.200Z,20.20
2019-01-14T19:16:09.569Z,20.30
2019-01-14T19:29:32.831Z,18.70
2019-01-14T19:32:00.631Z,18.80
2019-01-14T19:34:28.310Z,18.80
2019-01-14T19:41:51.648Z,19.10
2019-01-14T19:44:20.043Z,19.10
2019-01-14T19:46:48.343Z,19.10
2019-01-14T19:49:16.703Z,19.10
2019-01-14T19:51:45.084Z,19.20
2019-01-14T19:54:13.510Z,19.20
2019-01-14T19:56:41.814Z,19.20
2019-01-14T19:59:10.295Z,19.20
2019-01-14T20:01:38.752Z,19.30
2019-01-14T20:04:07.146Z,19.30
2019-01-14T20:06:35.523Z,19.40
2019-01-14T20:09:04.423Z,19.40
2019-01-14T20:11:32.799Z,19.40
2019-01-14T20:14:01.100Z,19.40
2019-01-14T20:16:29.416Z,19.50
2019-01-14T20:18:57.795Z,19.50
2019-01-14T20:21:26.114Z,19.60
2019-01-14T20:23:54.711Z,19.60
2019-01-14T20:26:23.029Z,19.60
2019-01-14T20:28:51.452Z,19.70
2019-01-14T20:31:19.842Z,19.70
2019-01-14T20:33:48.274Z,19.70
2019-01-14T20:36:16.646Z,19.80
2019-01-14T21:18:40.512Z,21.80
2019-01-14T21:21:08.890Z,21.60
2019-01-14T21:23:37.395Z,21.10
2019-01-14T21:26:05.911Z,21.00
2019-01-14T21:28:34.349Z,21.00
2019-01-14T21:31:02.774Z,20.80
2019-01-14T21:33:31.190Z,20.60
2019-01-14T21:35:59.480Z,20.50
2019-01-14T21:38:27.842Z,20.50
2019-01-14T21:40:56.202Z,20.40
2019-01-14T21:43:24.501Z,20.30
2019-01-14T21:45:53.890Z,20.20
2019-01-14T21:48:22.168Z,20.20
2019-01-14T21:50:51.008Z,20.10
2019-01-14T21:53:19.311Z,20.10
2019-01-14T21:55:47.623Z,20.00
2019-01-14T21:58:15.990Z,20.00
2019-01-14T22:00:44.387Z,19.90
2019-01-14T22:03:12.961Z,19.90
2019-01-14T22:05:41.319Z,19.90
2019-01-14T22:08:09.706Z,19.80
2019-01-14T22:10:38.238Z,19.80
2019-01-14T22:13:06.660Z,19.70
2019-01-14T22:15:34.961Z,19.70
2019-01-14T22:18:03.471Z,19.70
2019-01-14T22:20:33.591Z,19.60
2019-01-14T22:23:01.993Z,19.60
2019-01-14T22:25:30.531Z,19.60
2019-01-14T22:27:58.817Z,19.50
2019-01-14T22:30:31.306Z,19.50
2019-01-14T22:32:59.669Z,19.50
2019-01-14T22:35:27.961Z,19.40
2019-01-14T22:37:56.440Z,19.40
2019-01-14T22:40:24.758Z,19.40
2019-01-14T22:42:53.123Z,19.30
2019-01-14T22:45:21.501Z,19.30
2019-01-14T22:47:49.853Z,19.30
2019-01-14T22:50:19.011Z,19.20
2019-01-14T22:52:47.450Z,19.20
2019-01-14T22:55:15.810Z,19.20
2019-01-14T22:57:44.103Z,19.20
2019-01-14T23:00:48.371Z,19.20
2019-01-14T23:03:16.767Z,19.10
2019-01-14T23:05:45.282Z,19.10
2019-01-14T23:08:14.020Z,19.10
2019-01-14T23:10:42.398Z,19.00
2019-01-14T23:13:10.890Z,19.00
2019-01-14T23:15:39.280Z,19.00
2019-01-14T23:18:07.646Z,19.00
2019-01-14T23:20:35.956Z,18.90
2019-01-14T23:23:04.327Z,18.90
2019-01-14T23:25:32.630Z,18.90
2019-01-14T23:28:01.030Z,18.80
2019-01-14T23:30:29.335Z,18.80
2019-01-14T23:32:57.851Z,18.80
2019-01-14T23:35:26.244Z,18.80
2019-01-14T23:37:54.616Z,18.80
2019-01-14T23:40:22.921Z,18.80
2019-01-14T23:42:51.335Z,18.70
2019-01-14T23:45:19.665Z,18.70
2019-01-14T23:47:48.114Z,18.70
2019-01-14T23:50:18.828Z,18.70
2019-01-14T23:52:47.195Z,18.60
2019-01-14T23:55:15.615Z,18.60
2019-01-14T23:57:43.969Z,18.60
